createdAt,value
2022-11-28T00:01:24.860Z,6.55
2022-11-28T00:03:51.764Z,6.56
2022-11-28T00:06:18.581Z,6.57
2022-11-28T00:08:45.281Z,6.57
2022-11-28T00:11:14.290Z,6.59
2022-11-28T00:13:41.199Z,6.61
2022-11-28T00:16:09.485Z,6.62
2022-11-28T00:18:36.466Z,6.62
2022-11-28T00:21:09.609Z,6.65
2022-11-28T00:23:36.728Z,6.66
2022-11-28T00:26:07.069Z,6.66
2022-11-28T00:28:33.637Z,6.69
2022-11-28T00:31:00.148Z,6.69
2022-11-28T00:33:27.264Z,6.69
2022-11-28T00:36:04.599Z,6.70
2022-11-28T00:38:31.658Z,6.71
2022-11-28T00:41:10.149Z,6.71
2022-11-28T00:43:36.831Z,6.72
2022-11-28T00:46:04.231Z,6.73
2022-11-28T00:48:32.600Z,6.73
2022-11-28T00:51:10.499Z,6.74
2022-11-28T00:53:38.043Z,6.76
2022-11-28T00:56:05.958Z,6.74
2022-11-28T00:58:33.993Z,6.76
2022-11-28T01:01:01.212Z,6.75
2022-11-28T01:03:27.766Z,6.75
2022-11-28T01:05:54.158Z,6.77
2022-11-28T01:08:20.631Z,6.76
2022-11-28T01:10:47.209Z,6.76
2022-11-28T01:13:13.615Z,6.77
2022-11-28T01:15:43.402Z,6.78
2022-11-28T01:18:09.888Z,6.78
2022-11-28T01:20:36.736Z,6.78
2022-11-28T01:23:03.769Z,6.79
2022-11-28T01:25:30.549Z,6.80
2022-11-28T01:27:57.027Z,6.82
2022-11-28T01:30:23.486Z,6.83
2022-11-28T01:32:50.032Z,6.84
2022-11-28T01:35:16.467Z,6.85
2022-11-28T01:37:43.004Z,6.88
2022-11-28T01:40:13.095Z,6.90
2022-11-28T01:42:39.524Z,6.93
2022-11-28T01:45:28.614Z,6.95
2022-11-28T01:48:00.213Z,6.97
2022-11-28T01:50:28.639Z,7.00
2022-11-28T01:52:59.414Z,7.03
2022-11-28T01:55:29.074Z,7.05
2022-11-28T01:57:56.342Z,7.06
2022-11-28T02:00:23.336Z,7.09
2022-11-28T02:02:52.935Z,7.10
2022-11-28T02:05:21.312Z,7.13
2022-11-28T02:07:49.025Z,7.14
2022-11-28T02:10:20.604Z,7.16
2022-11-28T02:12:49.911Z,7.18
2022-11-28T02:15:27.974Z,7.21
2022-11-28T02:18:40.752Z,7.21
2022-11-28T02:21:13.987Z,7.23
2022-11-28T02:24:02.769Z,7.22
2022-11-28T02:26:41.482Z,7.25
2022-11-28T02:29:41.929Z,7.27
2022-11-28T02:32:20.435Z,7.26
2022-11-28T02:35:16.153Z,7.28
2022-11-28T02:38:16.691Z,7.27
2022-11-28T02:41:20.378Z,7.27
2022-11-28T02:43:53.122Z,7.30
2022-11-28T02:46:37.929Z,7.29
2022-11-28T02:49:07.347Z,7.30
2022-11-28T02:51:39.118Z,7.30
2022-11-28T02:54:08.937Z,7.30
2022-11-28T02:56:35.409Z,7.31
2022-11-28T02:59:02.040Z,7.31
2022-11-28T03:01:34.936Z,7.31
2022-11-28T03:04:13.400Z,7.30
2022-11-28T03:06:42.864Z,7.31
2022-11-28T03:09:40.857Z,7.31
2022-11-28T03:12:22.148Z,7.32
2022-11-28T03:15:00.527Z,7.31
2022-11-28T03:17:54.361Z,7.32
2022-11-28T03:20:41.068Z,7.30
2022-11-28T03:23:21.688Z,7.31
2022-11-28T03:26:01.585Z,7.31
2022-11-28T03:28:47.022Z,7.30
2022-11-28T03:31:37.372Z,7.31
2022-11-28T03:34:08.826Z,7.29
2022-11-28T03:36:40.515Z,7.29
2022-11-28T03:39:15.488Z,7.30
2022-11-28T03:41:57.194Z,7.30
2022-11-28T03:44:30.063Z,7.30
2022-11-28T03:46:59.915Z,7.31
2022-11-28T03:49:31.224Z,7.31
2022-11-28T03:52:04.748Z,7.30
2022-11-28T03:54:40.334Z,7.31
2022-11-28T03:57:30.027Z,7.31
2022-11-28T04:00:00.950Z,7.31
2022-11-28T04:02:46.301Z,7.32
2022-11-28T04:05:32.565Z,7.32
2022-11-28T04:08:09.852Z,7.31
2022-11-28T04:10:43.894Z,7.31
2022-11-28T04:13:41.129Z,7.31
2022-11-28T04:16:19.655Z,7.32
2022-11-28T04:18:52.523Z,7.32
2022-11-28T04:21:22.586Z,7.32
2022-11-28T04:23:50.872Z,7.32
2022-11-28T04:26:23.183Z,7.31
2022-11-28T04:28:52.260Z,7.32
2022-11-28T04:31:22.773Z,7.31
2022-11-28T04:33:56.108Z,7.32
2022-11-28T04:36:25.167Z,7.32
2022-11-28T04:38:56.776Z,7.32
2022-11-28T04:41:38.381Z,7.32
2022-11-28T04:44:25.590Z,7.33
2022-11-28T04:46:55.582Z,7.32
2022-11-28T04:49:24.159Z,7.32
2022-11-28T04:52:03.902Z,7.33
2022-11-28T04:54:36.215Z,7.32
2022-11-28T04:57:23.982Z,7.34
2022-11-28T04:59:51.597Z,7.33
2022-11-28T05:02:21.282Z,7.34
2022-11-28T05:04:47.787Z,7.35
2022-11-28T05:07:14.379Z,7.33
2022-11-28T05:09:40.873Z,7.33
2022-11-28T05:12:07.654Z,7.33
2022-11-28T05:14:34.190Z,7.33
2022-11-28T05:17:00.738Z,7.34
2022-11-28T05:19:27.266Z,7.34
2022-11-28T05:21:53.898Z,7.35
2022-11-28T05:24:22.363Z,7.34
2022-11-28T05:26:49.134Z,7.33
2022-11-28T05:29:15.563Z,7.33
2022-11-28T05:31:42.038Z,7.33
2022-11-28T05:34:08.991Z,7.33
2022-11-28T05:36:35.420Z,7.34
2022-11-28T05:39:01.853Z,7.34
2022-11-28T05:41:31.101Z,7.35
2022-11-28T05:43:58.598Z,7.33
2022-11-28T05:46:25.986Z,7.35
2022-11-28T05:48:52.569Z,7.35
2022-11-28T05:51:19.395Z,7.35
2022-11-28T05:53:45.941Z,7.35
2022-11-28T05:56:15.368Z,7.36
2022-11-28T05:58:42.596Z,7.36
2022-11-28T06:01:15.897Z,7.36
2022-11-28T06:03:43.396Z,7.36
2022-11-28T06:06:12.827Z,7.36
2022-11-28T06:08:40.005Z,7.36
2022-11-28T06:11:07.149Z,7.36
2022-11-28T06:13:33.816Z,7.36
2022-11-28T06:16:00.366Z,7.35
2022-11-28T06:18:26.960Z,7.37
2022-11-28T06:20:53.438Z,7.35
2022-11-28T06:23:19.879Z,7.36
2022-11-28T06:25:46.402Z,7.37
2022-11-28T06:28:12.837Z,7.37
2022-11-28T06:30:39.263Z,7.37
2022-11-28T06:33:05.774Z,7.37
2022-11-28T06:35:32.270Z,7.38
2022-11-28T06:37:58.797Z,7.37
2022-11-28T06:40:25.310Z,7.37
2022-11-28T06:42:51.932Z,7.39
2022-11-28T06:45:19.047Z,7.40
2022-11-28T06:47:45.470Z,7.40
2022-11-28T06:50:12.102Z,7.40
2022-11-28T06:52:38.545Z,7.40
2022-11-28T06:55:05.367Z,7.41
2022-11-28T06:57:32.738Z,7.41
2022-11-28T06:59:59.253Z,7.42
2022-11-28T07:02:27.537Z,7.42
2022-11-28T07:04:54.041Z,7.42
2022-11-28T07:07:20.527Z,7.43
2022-11-28T07:09:47.025Z,7.43
2022-11-28T07:12:13.902Z,7.43
2022-11-28T07:14:40.335Z,7.45
2022-11-28T07:17:06.850Z,7.43
2022-11-28T07:19:33.365Z,7.45
2022-11-28T07:21:59.907Z,7.45
2022-11-28T07:24:26.610Z,7.46
2022-11-28T07:26:53.355Z,7.46
2022-11-28T07:29:19.906Z,7.47
2022-11-28T07:31:46.710Z,7.47
2022-11-28T07:34:13.314Z,7.48
2022-11-28T07:36:39.770Z,7.48
2022-11-28T07:39:08.778Z,7.48
2022-11-28T07:41:35.926Z,7.49
2022-11-28T07:44:04.073Z,7.49
2022-11-28T07:46:32.400Z,7.51
2022-11-28T07:48:59.261Z,7.49
2022-11-28T07:51:31.492Z,7.51
2022-11-28T07:53:58.802Z,7.51
2022-11-28T07:56:39.430Z,7.50
2022-11-28T07:59:11.438Z,7.49
2022-11-28T08:01:38.467Z,7.50
2022-11-28T08:04:07.736Z,7.51
2022-11-28T08:06:39.994Z,7.52
2022-11-28T08:09:07.368Z,7.52
2022-11-28T08:11:34.115Z,7.54
2022-11-28T08:14:00.837Z,7.54
2022-11-28T08:16:28.539Z,7.55
2022-11-28T08:18:56.117Z,7.56
2022-11-28T08:21:28.688Z,7.57
2022-11-28T08:23:57.949Z,7.57
2022-11-28T08:26:30.362Z,7.60
2022-11-28T08:28:58.292Z,7.62
2022-11-28T08:31:46.220Z,7.62
2022-11-28T08:34:12.853Z,7.64
2022-11-28T08:36:39.716Z,7.65
2022-11-28T08:39:23.556Z,7.65
2022-11-28T08:41:51.178Z,7.68
2022-11-28T08:44:17.569Z,7.68
2022-11-28T08:46:44.071Z,7.69
2022-11-28T08:49:10.538Z,7.69
2022-11-28T08:51:37.155Z,7.71
2022-11-28T08:54:03.692Z,7.73
2022-11-28T08:56:30.096Z,7.75
2022-11-28T08:58:56.583Z,7.76
2022-11-28T09:01:25.749Z,7.77
2022-11-28T09:03:53.911Z,7.79
2022-11-28T09:06:21.796Z,7.81
2022-11-28T09:08:49.245Z,7.82
2022-11-28T09:11:18.207Z,7.83
2022-11-28T09:13:45.307Z,7.86
2022-11-28T09:16:12.675Z,7.88
2022-11-28T09:18:39.255Z,7.89
2022-11-28T09:21:09.447Z,7.90
2022-11-28T09:23:37.400Z,7.92
2022-11-28T09:26:11.761Z,7.93
2022-11-28T09:28:38.294Z,7.94
2022-11-28T09:31:06.755Z,7.97
2022-11-28T09:33:33.473Z,7.99
2022-11-28T09:36:07.894Z,8.00
2022-11-28T09:38:34.631Z,8.01
2022-11-28T09:41:02.605Z,8.03
2022-11-28T09:43:32.834Z,8.06
2022-11-28T09:46:02.040Z,8.07
2022-11-28T09:48:49.362Z,8.09
2022-11-28T09:51:25.269Z,8.11
2022-11-28T09:54:13.277Z,8.12
2022-11-28T09:56:40.009Z,8.13
2022-11-28T09:59:32.765Z,8.17
2022-11-28T10:02:17.965Z,8.20
2022-11-28T10:05:26.319Z,8.23
2022-11-28T10:08:10.898Z,8.22
2022-11-28T10:11:11.444Z,8.22
2022-11-28T10:17:00.587Z,8.26
2022-11-28T10:19:56.657Z,8.27
2022-11-28T10:22:48.330Z,8.29
2022-11-28T10:25:50.487Z,8.30
2022-11-28T10:28:22.130Z,8.30
2022-11-28T10:30:55.023Z,8.30
2022-11-28T10:33:30.387Z,8.30
2022-11-28T10:36:00.383Z,8.32
2022-11-28T10:38:29.089Z,8.35
2022-11-28T10:41:04.758Z,8.38
2022-11-28T10:43:59.425Z,8.39
2022-11-28T10:46:46.143Z,8.42
2022-11-28T10:49:31.029Z,8.43
2022-11-28T10:52:06.717Z,8.46
2022-11-28T10:54:57.482Z,8.48
2022-11-28T10:58:04.403Z,8.52
2022-11-28T11:00:31.915Z,8.51
2022-11-28T11:03:02.288Z,8.53
2022-11-28T11:05:33.655Z,8.53
2022-11-28T11:08:11.501Z,8.56
2022-11-28T11:10:51.910Z,8.60
2022-11-28T11:13:24.965Z,8.62
2022-11-28T11:15:59.245Z,8.64
2022-11-28T11:18:32.787Z,8.65
2022-11-28T11:21:33.513Z,8.69
2022-11-28T11:24:17.227Z,8.70
2022-11-28T11:26:46.979Z,8.71
2022-11-28T11:29:29.396Z,8.73
2022-11-28T11:31:58.301Z,8.74
2022-11-28T11:34:24.910Z,8.74
2022-11-28T11:36:51.710Z,8.73
2022-11-28T11:39:25.687Z,8.72
2022-11-28T11:42:12.173Z,8.74
2022-11-28T11:44:38.602Z,8.76
2022-11-28T11:47:08.092Z,8.78
2022-11-28T11:49:37.462Z,8.79
2022-11-28T11:52:14.679Z,8.82
2022-11-28T11:54:46.976Z,8.83
2022-11-28T11:57:32.735Z,8.85
2022-11-28T12:00:26.067Z,8.85
2022-11-28T12:02:59.768Z,8.86
2022-11-28T12:05:46.358Z,8.88
2022-11-28T12:08:31.549Z,8.88
2022-11-28T12:11:16.381Z,8.93
2022-11-28T12:13:43.167Z,8.94
2022-11-28T12:16:45.294Z,8.99
2022-11-28T12:19:14.815Z,9.03
2022-11-28T12:22:05.788Z,9.05
2022-11-28T12:24:58.699Z,9.05
2022-11-28T12:27:40.359Z,9.06
2022-11-28T12:30:25.416Z,9.08
2022-11-28T12:33:13.643Z,9.09
2022-11-28T12:35:43.005Z,9.09
2022-11-28T12:38:48.046Z,9.10
2022-11-28T12:41:32.603Z,9.11
2022-11-28T12:44:16.233Z,9.08
2022-11-28T12:46:45.853Z,9.11
2022-11-28T12:49:20.161Z,9.11
2022-11-28T12:52:02.182Z,9.13
2022-11-28T12:54:56.728Z,9.14
2022-11-28T12:57:33.450Z,9.15
2022-11-28T13:00:08.673Z,9.17
2022-11-28T13:03:01.381Z,9.17
2022-11-28T13:05:39.251Z,9.17
2022-11-28T13:08:52.657Z,9.17
2022-11-28T13:11:37.897Z,9.18
2022-11-28T13:14:35.107Z,9.19
2022-11-28T13:17:18.997Z,9.20
2022-11-28T13:20:04.700Z,9.20
2022-11-28T13:23:06.348Z,9.21
2022-11-28T13:26:03.249Z,9.21
2022-11-28T13:28:32.601Z,9.23
2022-11-28T13:31:09.864Z,9.22
2022-11-28T13:33:52.813Z,9.23
2022-11-28T13:39:37.695Z,9.27
2022-11-28T13:45:30.253Z,9.30
2022-11-28T13:48:00.224Z,9.32
2022-11-28T13:50:29.643Z,9.31
2022-11-28T13:53:00.316Z,9.32
2022-11-28T13:55:46.884Z,9.33
2022-11-28T13:58:19.879Z,9.33
2022-11-28T14:01:13.136Z,9.34
2022-11-28T14:03:45.061Z,9.33
2022-11-28T14:06:13.474Z,9.34
2022-11-28T14:08:42.985Z,9.34
2022-11-28T14:11:30.924Z,9.31
2022-11-28T14:14:22.797Z,9.32
2022-11-28T14:17:14.163Z,9.30
2022-11-28T14:19:59.128Z,9.32
2022-11-28T14:22:43.917Z,9.31
2022-11-28T14:25:13.467Z,9.32
2022-11-28T14:27:47.028Z,9.32
2022-11-28T14:30:25.827Z,9.30
2022-11-28T14:32:57.576Z,9.31
2022-11-28T14:35:58.228Z,9.34
2022-11-28T14:38:30.854Z,9.34
2022-11-28T14:40:57.414Z,9.32
2022-11-28T14:43:27.867Z,9.32
2022-11-28T14:46:16.025Z,9.33
2022-11-28T14:49:05.203Z,9.33
2022-11-28T14:52:16.002Z,9.34
2022-11-28T14:54:44.475Z,9.34
2022-11-28T14:57:19.528Z,9.32
2022-11-28T14:59:48.120Z,9.33
2022-11-28T15:02:33.694Z,9.33
2022-11-28T15:05:19.116Z,9.32
2022-11-28T15:08:13.273Z,9.34
2022-11-28T15:10:54.716Z,9.36
2022-11-28T15:13:58.848Z,9.34
2022-11-28T15:16:29.601Z,9.34
2022-11-28T15:19:02.287Z,9.34
2022-11-28T15:21:28.809Z,9.34
2022-11-28T15:23:55.997Z,9.36
2022-11-28T15:26:30.149Z,9.35
2022-11-28T15:29:20.942Z,9.35
2022-11-28T15:31:49.893Z,9.35
2022-11-28T15:34:37.900Z,9.33
2022-11-28T15:37:16.635Z,9.32
2022-11-28T15:39:46.737Z,9.32
2022-11-28T15:42:22.072Z,9.31
2022-11-28T15:44:54.546Z,9.30
2022-11-28T15:47:21.601Z,9.30
2022-11-28T15:50:10.141Z,9.30
2022-11-28T15:52:36.570Z,9.30
2022-11-28T15:55:13.870Z,9.30
2022-11-28T15:57:40.292Z,9.27
2022-11-28T16:00:13.470Z,9.28
2022-11-28T16:02:41.912Z,9.26
2022-11-28T16:05:15.893Z,9.28
2022-11-28T16:07:44.487Z,9.25
2022-11-28T16:10:32.444Z,9.21
2022-11-28T16:13:04.851Z,9.18
2022-11-28T16:15:31.687Z,9.15
2022-11-28T16:17:58.318Z,9.13
2022-11-28T16:20:34.144Z,9.11
2022-11-28T16:23:07.293Z,9.09
2022-11-28T16:25:33.770Z,9.09
2022-11-28T16:28:00.640Z,9.08
2022-11-28T16:30:27.112Z,9.08
2022-11-28T16:32:55.884Z,9.09
2022-11-28T16:35:27.072Z,9.10
2022-11-28T16:38:03.955Z,9.10
2022-11-28T16:40:30.880Z,9.10
2022-11-28T16:42:58.807Z,9.10
2022-11-28T16:45:30.921Z,9.13
2022-11-28T16:48:15.685Z,9.13
2022-11-28T16:51:02.040Z,9.13
2022-11-28T16:53:50.136Z,9.12
2022-11-28T16:56:23.761Z,9.11
2022-11-28T16:59:19.288Z,9.12
2022-11-28T17:01:53.085Z,9.12
2022-11-28T17:04:24.269Z,9.14
2022-11-28T17:06:52.833Z,9.14
2022-11-28T17:09:19.863Z,9.15
2022-11-28T17:12:06.600Z,9.14
2022-11-28T17:14:33.251Z,9.14
2022-11-28T17:17:02.792Z,9.13
2022-11-28T17:19:29.273Z,9.12
2022-11-28T17:21:59.515Z,9.07
2022-11-28T17:24:29.378Z,9.04
2022-11-28T17:26:55.915Z,9.00
2022-11-28T17:29:22.418Z,8.98
2022-11-28T17:31:49.454Z,8.94
2022-11-28T17:34:20.481Z,8.91
2022-11-28T17:36:47.798Z,8.87
2022-11-28T17:39:14.965Z,8.83
2022-11-28T17:41:42.168Z,8.82
2022-11-28T17:44:29.703Z,8.77
2022-11-28T17:46:57.964Z,8.72
2022-11-28T17:49:24.836Z,8.69
2022-11-28T17:51:53.116Z,8.66
2022-11-28T17:54:22.102Z,8.63
2022-11-28T17:56:50.313Z,8.60
2022-11-28T17:59:18.992Z,8.57
2022-11-28T18:01:46.287Z,8.53
2022-11-28T18:04:12.972Z,8.48
2022-11-28T18:06:42.369Z,8.43
2022-11-28T18:09:12.113Z,8.38
2022-11-28T18:11:39.496Z,8.35
2022-11-28T18:14:06.184Z,8.32
2022-11-28T18:16:32.966Z,8.29
2022-11-28T18:18:59.784Z,8.26
2022-11-28T18:21:26.804Z,8.22
2022-11-28T18:23:54.546Z,8.19
2022-11-28T18:26:23.932Z,8.18
2022-11-28T18:28:51.017Z,8.14
2022-11-28T18:31:19.949Z,8.13
2022-11-28T18:33:49.707Z,8.11
2022-11-28T18:36:18.737Z,8.09
2022-11-28T18:38:45.289Z,8.09
2022-11-28T18:41:13.202Z,8.10
2022-11-28T18:43:40.461Z,8.07
2022-11-28T18:46:19.078Z,8.07
2022-11-28T18:48:47.438Z,8.03
2022-11-28T18:51:40.185Z,8.00
2022-11-28T18:54:06.816Z,7.98
2022-11-28T18:56:33.409Z,7.98
2022-11-28T18:58:59.844Z,7.96
2022-11-28T19:01:31.886Z,7.96
2022-11-28T19:04:01.329Z,7.91
2022-11-28T19:06:28.371Z,7.91
2022-11-28T19:08:57.163Z,7.91
2022-11-28T19:11:24.315Z,7.90
2022-11-28T19:13:52.746Z,7.89
2022-11-28T19:16:22.676Z,7.88
2022-11-28T19:18:49.179Z,7.89
2022-11-28T19:21:21.446Z,7.91
2022-11-28T19:23:48.366Z,7.94
2022-11-28T19:26:17.859Z,7.96
2022-11-28T19:28:44.693Z,7.97
2022-11-28T19:31:15.159Z,7.98
2022-11-28T19:33:44.759Z,8.00
2022-11-28T19:36:13.323Z,7.98
2022-11-28T19:38:40.709Z,8.00
2022-11-28T19:41:07.880Z,8.01
2022-11-28T19:43:35.074Z,8.04
2022-11-28T19:46:02.304Z,8.06
2022-11-28T19:48:31.053Z,8.08
2022-11-28T19:50:57.973Z,8.09
2022-11-28T19:53:24.860Z,8.10
2022-11-28T19:55:52.090Z,8.09
2022-11-28T19:58:18.757Z,8.10
2022-11-28T20:00:45.209Z,8.13
2022-11-28T20:03:11.656Z,8.15
2022-11-28T20:05:40.498Z,8.16
2022-11-28T20:08:08.066Z,8.19
2022-11-28T20:10:36.579Z,8.22
2022-11-28T20:13:03.049Z,8.25
2022-11-28T20:15:29.588Z,8.25
2022-11-28T20:17:56.143Z,8.25
2022-11-28T20:20:22.589Z,8.26
2022-11-28T20:22:48.983Z,8.26
2022-11-28T20:25:20.505Z,8.26
2022-11-28T20:27:47.332Z,8.26
2022-11-28T20:30:14.617Z,8.23
2022-11-28T20:32:41.018Z,8.22
2022-11-28T20:35:09.455Z,8.20
2022-11-28T20:37:36.697Z,8.23
2022-11-28T20:40:03.590Z,8.20
2022-11-28T20:42:30.030Z,8.20
2022-11-28T20:44:56.429Z,8.20
2022-11-28T20:47:22.850Z,8.22
2022-11-28T20:49:49.306Z,8.24
2022-11-28T20:52:15.806Z,8.25
2022-11-28T20:54:42.196Z,8.22
2022-11-28T20:57:23.974Z,8.21
2022-11-28T20:59:50.514Z,8.22
2022-11-28T21:02:17.032Z,8.23
2022-11-28T21:04:43.581Z,8.26
2022-11-28T21:07:10.013Z,8.26
2022-11-28T21:09:36.466Z,8.25
2022-11-28T21:12:02.987Z,8.22
2022-11-28T21:14:29.574Z,8.18
2022-11-28T21:16:57.729Z,8.17
2022-11-28T21:19:24.541Z,8.17
2022-11-28T21:21:50.988Z,8.14
2022-11-28T21:24:17.471Z,8.14
2022-11-28T21:26:49.729Z,8.15
2022-11-28T21:29:19.959Z,8.15
2022-11-28T21:31:46.772Z,8.15
2022-11-28T21:34:15.338Z,8.15
2022-11-28T21:36:42.820Z,8.15
2022-11-28T21:39:14.291Z,8.18
2022-11-28T21:41:40.929Z,8.19
2022-11-28T21:44:07.410Z,8.21
2022-11-28T21:46:33.950Z,8.24
2022-11-28T21:49:00.447Z,8.24
2022-11-28T21:51:28.626Z,8.22
2022-11-28T21:53:57.251Z,8.23
2022-11-28T21:56:24.029Z,8.25
2022-11-28T21:58:50.516Z,8.27
2022-11-28T22:01:17.187Z,8.26
2022-11-28T22:03:43.929Z,8.27
2022-11-28T22:06:17.057Z,8.24
2022-11-28T22:08:43.993Z,8.23
2022-11-28T22:11:13.093Z,8.25
2022-11-28T22:13:42.197Z,8.27
2022-11-28T22:16:18.537Z,8.25
2022-11-28T22:18:47.647Z,8.23
2022-11-28T22:24:04.684Z,8.29
2022-11-28T22:26:31.170Z,8.29
2022-11-28T22:28:58.852Z,8.27
2022-11-28T22:31:25.523Z,8.27
2022-11-28T22:33:52.088Z,8.26
2022-11-28T22:36:20.197Z,8.26
2022-11-28T22:38:48.539Z,8.25
2022-11-28T22:41:26.396Z,8.23
2022-11-28T22:43:56.485Z,8.25
2022-11-28T22:46:23.082Z,8.25
2022-11-28T22:48:50.545Z,8.25
2022-11-28T22:51:19.820Z,8.25
2022-11-28T22:53:46.294Z,8.27
2022-11-28T22:56:15.086Z,8.26
2022-11-28T22:58:44.534Z,8.29
2022-11-28T23:01:23.894Z,8.29
2022-11-28T23:03:51.174Z,8.32
2022-11-28T23:06:20.671Z,8.33
2022-11-28T23:08:47.670Z,8.34
2022-11-28T23:11:19.963Z,8.32
2022-11-28T23:13:49.862Z,8.33
2022-11-28T23:16:28.365Z,8.32
2022-11-28T23:18:59.255Z,8.32
2022-11-28T23:21:30.115Z,8.32
2022-11-28T23:23:56.561Z,8.33
2022-11-28T23:26:25.817Z,8.33
2022-11-28T23:28:52.992Z,8.32
2022-11-28T23:31:22.504Z,8.32
2022-11-28T23:33:49.666Z,8.33
2022-11-28T23:36:41.719Z,8.34
2022-11-28T23:39:15.325Z,8.34
2022-11-28T23:41:42.075Z,8.34
2022-11-28T23:44:10.706Z,8.35
2022-11-28T23:46:38.103Z,8.35
2022-11-28T23:49:05.653Z,8.34
2022-11-28T23:51:32.282Z,8.33
2022-11-28T23:53:58.737Z,8.32
2022-11-28T23:56:27.554Z,8.32
2022-11-28T23:58:55.869Z,8.33
